ADDS TAF Board (Experimental) INFO Settings
IDs: Format: Expanded Condensed

KLGA - New York/La Guardia, NY, US

Issued at 1432 UTC 23 Jul 2016
Updated at 1655 UTC 23 Jul 2016
Time1651Z 23/17Z 23/18Z 23/19Z 23/20Z 23/21Z 23/22Z 23/23Z 24/00Z 24/01Z 24/02Z 24/03Z 24/04Z 24/05Z
Type OBS PRVL PRVL PRVL
  [TEMP]  
PRVL
  [TEMP]  
PRVL
  [TEMP]  
PRVL
  [TEMP]  
PRVL PRVL PRVL PRVL PRVL PRVL PRVL
VIS 10 >6 >6 >6 >6 >6 >6 >6 >6 >6 >6 >6 >6 >6
CIG -- -- -- --
  [--]  
--
  [--]  
--
  [--]  
--
  [--]  
-- -- -- -- -- -- --
Cover FEW FEW FEW FEW
  [FEW]  
FEW
  [FEW]  
FEW
  [FEW]  
FEW
  [FEW]  
SKC SKC SKC SKC SKC SKC SKC
FltCat VFR VFR VFR VFR
  [VFR]  
VFR
  [VFR]  
VFR
  [VFR]  
VFR
  [VFR]  
VFR VFR VFR VFR VFR VFR VFR
WX -- -- -- --
  [--]  
--
  [--]  
--
  [--]  
--
  [--]  
-- -- -- -- -- -- --
WDir 290 290 290 290
[310]
290
[310]
290
[310]
290
[310]
310 310 310 330 330 330 330
WSpd 14 16 16 16
  [16]  
16
  [16]  
16
  [16]  
16
  [16]  
12 12 12 7 7 7 7
WGst -- 24 24 24
  [24]  
24
  [24]  
24
  [24]  
24
  [24]  
-- -- -- -- -- -- --
R04/22
XWnd 14 16 16 16 16 16 16 12 12 12 6 6 6 6
XGst -- 23 23 23 23 23 23 -- -- -- -- -- -- --
HWnd -3 -3 -3 -3 -3 -3 -3 2 2 2 3 3 3 3
HGst -- -5 -5 -5 -5 -5 -5 -- -- -- -- -- -- --
R13/31
XWnd -3 -3 -3 -3 -3 -3 -3 2 2 2 3 3 3 3
XGst -- -5 -5 -5 -5 -5 -5 -- -- -- -- -- -- --
HWnd -14 -16 -16 -16 -16 -16 -16 -12 -12 -12 -6 -6 -6 -6
HGst -- -23 -23 -23 -23 -23 -23 -- -- -- -- -- -- --

Raw TAF
KLGA 231432Z 2315/2412 29016G24KT P6SM FEW060
  TEMPO 2319/2323 31016G24KT
  FM232300 31012KT P6SM SKC
  FM240200 33007KT P6SM SKC


Raw METAR
KLGA 231651Z 29014KT 10SM FEW070 FEW250 34/15 A2983 RMK AO2 SLP102 T03440150
KLGA 231551Z 29014G19KT 10SM FEW070 FEW250 33/15 A2984 RMK AO2 SLP106 T03330150
KLGA 231451Z 28006KT 10SM FEW070 FEW250 32/16 A2984 RMK AO2 SLP106 T03220161 58003
KLGA 231351Z 28012G18KT 10SM FEW250 32/17 A2985 RMK AO2 SLP108 T03170172

METAR Board
Radar Display
Forecast Discussion

TAF Board Legend

Potential Impact
Threat None Slight Moderate High
Visibility (sm) ≥5.1 5.1>X≥3 3>X≥1 <1
Ceiling (100 ft) ≥30.1 30.1>X≥10 10>X≥5 <5
Wind Speed (kt) <10 10≤X<20 20≤X<30 ≥30
Wind Gust (kt) <15 15≤X<25 25≤X<35 ≥35
Weather No Wx Reported VCTS,-TS,-FZRA,SN TS,FZRA +TS,+FZRA,+SN